sensor_id;sensor_type;location;lat;lon;timestamp;pressure;altitude;pressure_sealevel;temperature;humidity
64189;BME280;50493;50.970;10.082;2023-11-18T00:01:34;100118.56;;;3.52;67.38
64189;BME280;50493;50.970;10.082;2023-11-18T00:03:59;100121.22;;;3.55;68.52
64189;BME280;50493;50.970;10.082;2023-11-18T00:06:26;100123.84;;;3.56;68.63
64189;BME280;50493;50.970;10.082;2023-11-18T00:08:51;100127.28;;;3.57;68.31
64189;BME280;50493;50.970;10.082;2023-11-18T00:11:17;100127.72;;;3.36;69.18
64189;BME280;50493;50.970;10.082;2023-11-18T00:13:44;100132.78;;;3.28;69.68
64189;BME280;50493;50.970;10.082;2023-11-18T00:16:10;100126.78;;;3.29;69.12
64189;BME280;50493;50.970;10.082;2023-11-18T00:18:38;100132.06;;;3.37;69.05
64189;BME280;50493;50.970;10.082;2023-11-18T00:21:05;100127.78;;;3.37;68.67
64189;BME280;50493;50.970;10.082;2023-11-18T00:23:31;100124.25;;;3.34;68.71
64189;BME280;50493;50.970;10.082;2023-11-18T00:25:57;100124.25;;;3.34;68.66
64189;BME280;50493;50.970;10.082;2023-11-18T00:28:22;100124.09;;;3.26;68.86
64189;BME280;50493;50.970;10.082;2023-11-18T00:30:48;100129.34;;;3.29;68.71
64189;BME280;50493;50.970;10.082;2023-11-18T00:33:13;100130.97;;;3.24;68.61
64189;BME280;50493;50.970;10.082;2023-11-18T00:35:39;100132.59;;;3.19;68.86
64189;BME280;50493;50.970;10.082;2023-11-18T00:38:04;100133.19;;;3.07;69.12
64189;BME280;50493;50.970;10.082;2023-11-18T00:40:31;100131.53;;;3.09;68.97
64189;BME280;50493;50.970;10.082;2023-11-18T00:42:56;100139.06;;;2.98;69.49
64189;BME280;50493;50.970;10.082;2023-11-18T00:45:22;100134.00;;;3.04;69.19
64189;BME280;50493;50.970;10.082;2023-11-18T00:47:47;100133.94;;;3.01;69.05
64189;BME280;50493;50.970;10.082;2023-11-18T00:50:13;100134.63;;;2.94;69.76
64189;BME280;50493;50.970;10.082;2023-11-18T00:52:39;100135.66;;;3.01;69.26
64189;BME280;50493;50.970;10.082;2023-11-18T00:55:07;100137.56;;;3.10;68.57
64189;BME280;50493;50.970;10.082;2023-11-18T00:57:34;100140.91;;;3.05;68.81
64189;BME280;50493;50.970;10.082;2023-11-18T01:00:00;100142.56;;;3.03;69.12
64189;BME280;50493;50.970;10.082;2023-11-18T01:02:25;100140.22;;;3.14;68.58
64189;BME280;50493;50.970;10.082;2023-11-18T01:04:51;100144.19;;;3.39;67.38
64189;BME280;50493;50.970;10.082;2023-11-18T01:07:17;100140.75;;;3.40;66.93
64189;BME280;50493;50.970;10.082;2023-11-18T01:09:42;100146.47;;;3.24;67.75
64189;BME280;50493;50.970;10.082;2023-11-18T01:12:08;100142.13;;;3.21;67.75
64189;BME280;50493;50.970;10.082;2023-11-18T01:14:36;100146.47;;;3.24;67.70
64189;BME280;50493;50.970;10.082;2023-11-18T01:17:03;100148.94;;;3.19;67.63
64189;BME280;50493;50.970;10.082;2023-11-18T01:19:28;100147.88;;;3.10;68.30
64189;BME280;50493;50.970;10.082;2023-11-18T01:21:53;100149.84;;;3.20;67.31
64189;BME280;50493;50.970;10.082;2023-11-18T01:24:20;100153.19;;;3.16;67.68
64189;BME280;50493;50.970;10.082;2023-11-18T01:26:47;100151.25;;;3.05;67.93
64189;BME280;50493;50.970;10.082;2023-11-18T01:29:12;100153.84;;;3.07;67.77
64189;BME280;50493;50.970;10.082;2023-11-18T01:31:39;100155.06;;;3.23;67.45
64189;BME280;50493;50.970;10.082;2023-11-18T01:34:08;100163.09;;;3.37;66.53
64189;BME280;50493;50.970;10.082;2023-11-18T01:36:33;100159.28;;;3.62;65.39
64189;BME280;50493;50.970;10.082;2023-11-18T01:38:58;100157.47;;;3.58;65.42
64189;BME280;50493;50.970;10.082;2023-11-18T01:41:24;100160.94;;;3.60;65.54
64189;BME280;50493;50.970;10.082;2023-11-18T01:43:50;100166.13;;;3.60;65.21
64189;BME280;50493;50.970;10.082;2023-11-18T01:46:16;100159.31;;;3.65;64.93
64189;BME280;50493;50.970;10.082;2023-11-18T01:48:44;100172.97;;;3.56;65.39
64189;BME280;50493;50.970;10.082;2023-11-18T01:51:10;100172.84;;;3.52;65.32
64189;BME280;50493;50.970;10.082;2023-11-18T01:53:36;100173.09;;;3.64;64.88
64189;BME280;50493;50.970;10.082;2023-11-18T01:56:02;100168.00;;;3.67;64.65
64189;BME280;50493;50.970;10.082;2023-11-18T01:58:30;100182.41;;;3.56;64.96
64189;BME280;50493;50.970;10.082;2023-11-18T02:00:56;100182.38;;;3.54;65.08
64189;BME280;50493;50.970;10.082;2023-11-18T02:03:22;100176.47;;;3.60;64.88
64189;BME280;50493;50.970;10.082;2023-11-18T02:05:49;100181.53;;;3.54;65.23
64189;BME280;50493;50.970;10.082;2023-11-18T02:08:16;100180.41;;;3.41;65.36
64189;BME280;50493;50.970;10.082;2023-11-18T02:10:47;100176.16;;;3.45;65.42
64189;BME280;50493;50.970;10.082;2023-11-18T02:13:21;100189.34;;;3.58;64.66
64189;BME280;50493;50.970;10.082;2023-11-18T02:15:52;100183.88;;;3.42;65.36
64189;BME280;50493;50.970;10.082;2023-11-18T02:18:18;100184.75;;;3.44;65.30
64189;BME280;50493;50.970;10.082;2023-11-18T02:20:46;100183.72;;;3.34;65.58
64189;BME280;50493;50.970;10.082;2023-11-18T02:23:14;100184.25;;;3.19;66.20
64189;BME280;50493;50.970;10.082;2023-11-18T02:25:44;100180.75;;;3.17;66.42
64189;BME280;50493;50.970;10.082;2023-11-18T02:28:10;100185.66;;;3.04;66.84
64189;BME280;50493;50.970;10.082;2023-11-18T02:30:36;100185.66;;;3.04;66.73
64189;BME280;50493;50.970;10.082;2023-11-18T02:33:03;100180.38;;;2.98;66.75
64189;BME280;50493;50.970;10.082;2023-11-18T02:35:34;100185.84;;;3.12;66.27
64189;BME280;50493;50.970;10.082;2023-11-18T02:38:02;100184.00;;;3.06;66.59
64189;BME280;50493;50.970;10.082;2023-11-18T02:40:33;100187.34;;;3.02;66.82
64189;BME280;50493;50.970;10.082;2023-11-18T02:43:04;100189.03;;;3.00;66.75
64189;BME280;50493;50.970;10.082;2023-11-18T02:45:35;100196.47;;;2.88;66.94
64189;BME280;50493;50.970;10.082;2023-11-18T02:48:01;100198.03;;;2.81;67.71
64189;BME280;50493;50.970;10.082;2023-11-18T02:50:27;100196.41;;;2.85;67.08
64189;BME280;50493;50.970;10.082;2023-11-18T02:52:52;100191.31;;;2.88;67.00
64189;BME280;50493;50.970;10.082;2023-11-18T02:55:18;100187.84;;;2.87;66.90
64189;BME280;50493;50.970;10.082;2023-11-18T02:57:43;100194.81;;;2.90;66.64
64189;BME280;50493;50.970;10.082;2023-11-18T03:00:11;100201.84;;;2.97;66.41
64189;BME280;50493;50.970;10.082;2023-11-18T03:02:41;100192.28;;;2.93;66.53
64189;BME280;50493;50.970;10.082;2023-11-18T03:05:07;100188.78;;;2.91;66.62
64189;BME280;50493;50.970;10.082;2023-11-18T03:07:36;100191.44;;;2.94;66.29
64189;BME280;50493;50.970;10.082;2023-11-18T03:10:02;100183.50;;;2.85;66.41
64189;BME280;50493;50.970;10.082;2023-11-18T03:12:28;100177.63;;;2.92;66.09
64189;BME280;50493;50.970;10.082;2023-11-18T03:14:53;100184.31;;;2.84;66.48
64189;BME280;50493;50.970;10.082;2023-11-18T03:17:20;100179.78;;;2.73;67.04
64189;BME280;50493;50.970;10.082;2023-11-18T03:19:46;100177.84;;;2.63;67.41
64189;BME280;50493;50.970;10.082;2023-11-18T03:22:11;100184.69;;;2.63;67.03
64189;BME280;50493;50.970;10.082;2023-11-18T03:24:38;100181.25;;;2.62;67.08
64189;BME280;50493;50.970;10.082;2023-11-18T03:27:04;100176.09;;;2.62;66.84
64189;BME280;50493;50.970;10.082;2023-11-18T03:29:29;100173.25;;;2.51;67.63
64189;BME280;50493;50.970;10.082;2023-11-18T03:31:55;100174.03;;;2.49;67.22
64189;BME280;50493;50.970;10.082;2023-11-18T03:34:22;100168.84;;;2.47;67.26
64189;BME280;50493;50.970;10.082;2023-11-18T03:36:48;100163.66;;;2.46;67.26
64189;BME280;50493;50.970;10.082;2023-11-18T03:39:13;100167.78;;;2.39;67.72
64189;BME280;50493;50.970;10.082;2023-11-18T03:41:39;100170.94;;;2.27;67.96
64189;BME280;50493;50.970;10.082;2023-11-18T03:44:04;100176.03;;;2.24;68.06
64189;BME280;50493;50.970;10.082;2023-11-18T03:46:30;100184.66;;;2.26;68.13
64189;BME280;50493;50.970;10.082;2023-11-18T03:48:59;100185.59;;;2.28;67.76
64189;BME280;50493;50.970;10.082;2023-11-18T03:51:26;100195.00;;;2.26;67.76
64189;BME280;50493;50.970;10.082;2023-11-18T03:53:51;100195.00;;;2.26;67.99
64189;BME280;50493;50.970;10.082;2023-11-18T03:56:17;100194.34;;;2.33;67.08
64189;BME280;50493;50.970;10.082;2023-11-18T03:58:43;100195.97;;;2.31;67.10
64189;BME280;50493;50.970;10.082;2023-11-18T04:01:09;100187.41;;;2.32;67.05
64189;BME280;50493;50.970;10.082;2023-11-18T04:03:36;100192.50;;;2.29;67.20
64189;BME280;50493;50.970;10.082;2023-11-18T04:06:01;100183.84;;;2.27;67.41
64189;BME280;50493;50.970;10.082;2023-11-18T04:08:30;100187.03;;;2.17;67.44
64189;BME280;50493;50.970;10.082;2023-11-18T04:10:55;100182.72;;;2.16;67.81
64189;BME280;50493;50.970;10.082;2023-11-18T04:13:20;100188.69;;;2.15;67.39
64189;BME280;50493;50.970;10.082;2023-11-18T04:15:46;100178.31;;;2.12;67.87
64189;BME280;50493;50.970;10.082;2023-11-18T04:18:11;100175.63;;;2.09;67.57
64189;BME280;50493;50.970;10.082;2023-11-18T04:20:37;100174.50;;;1.97;68.30
64189;BME280;50493;50.970;10.082;2023-11-18T04:23:02;100172.59;;;1.90;68.05
64189;BME280;50493;50.970;10.082;2023-11-18T04:25:29;100177.75;;;1.90;68.00
64189;BME280;50493;50.970;10.082;2023-11-18T04:27:54;100173.47;;;1.91;67.68
64189;BME280;50493;50.970;10.082;2023-11-18T04:30:19;100171.84;;;1.94;67.67
64189;BME280;50493;50.970;10.082;2023-11-18T04:32:46;100163.28;;;1.95;67.81
64189;BME280;50493;50.970;10.082;2023-11-18T04:35:11;100165.94;;;1.98;67.77
64189;BME280;50493;50.970;10.082;2023-11-18T04:37:37;100171.03;;;1.95;67.41
64189;BME280;50493;50.970;10.082;2023-11-18T04:40:05;100177.75;;;1.90;67.41
64189;BME280;50493;50.970;10.082;2023-11-18T04:42:32;100181.91;;;1.85;67.98
64189;BME280;50493;50.970;10.082;2023-11-18T04:44:58;100172.50;;;1.87;67.42
64189;BME280;50493;50.970;10.082;2023-11-18T04:47:23;100175.81;;;1.83;67.45
64189;BME280;50493;50.970;10.082;2023-11-18T04:49:50;100179.00;;;1.72;67.63
64189;BME280;50493;50.970;10.082;2023-11-18T04:52:15;100189.22;;;1.69;67.64
64189;BME280;50493;50.970;10.082;2023-11-18T04:54:41;100181.47;;;1.69;68.01
64189;BME280;50493;50.970;10.082;2023-11-18T04:57:06;100178.09;;;1.70;67.89
64189;BME280;50493;50.970;10.082;2023-11-18T04:59:35;100177.38;;;1.76;67.29
64189;BME280;50493;50.970;10.082;2023-11-18T05:02:01;100180.00;;;1.78;67.27
64189;BME280;50493;50.970;10.082;2023-11-18T05:04:28;100167.13;;;1.78;67.01
64189;BME280;50493;50.970;10.082;2023-11-18T05:06:53;100161.75;;;1.70;67.12
64189;BME280;50493;50.970;10.082;2023-11-18T05:09:19;100166.09;;;1.71;67.16
64189;BME280;50493;50.970;10.082;2023-11-18T05:11:44;100165.97;;;1.68;67.51
64189;BME280;50493;50.970;10.082;2023-11-18T05:14:10;100159.03;;;1.65;66.93
64189;BME280;50493;50.970;10.082;2023-11-18T05:16:37;100165.03;;;1.64;67.20
64189;BME280;50493;50.970;10.082;2023-11-18T05:19:04;100164.94;;;1.61;67.63
64189;BME280;50493;50.970;10.082;2023-11-18T05:21:29;100169.13;;;1.56;67.58
64189;BME280;50493;50.970;10.082;2023-11-18T05:23:55;100171.59;;;1.53;66.94
64189;BME280;50493;50.970;10.082;2023-11-18T05:26:20;100171.59;;;1.53;67.75
64189;BME280;50493;50.970;10.082;2023-11-18T05:28:45;100169.91;;;1.53;67.03
64189;BME280;50493;50.970;10.082;2023-11-18T05:31:11;100161.47;;;1.59;66.61
64189;BME280;50493;50.970;10.082;2023-11-18T05:33:38;100159.72;;;1.58;66.77
64189;BME280;50493;50.970;10.082;2023-11-18T05:36:04;100157.13;;;1.58;66.60
64189;BME280;50493;50.970;10.082;2023-11-18T05:38:30;100152.66;;;1.51;67.15
64189;BME280;50493;50.970;10.082;2023-11-18T05:40:59;100156.97;;;1.52;67.02
64189;BME280;50493;50.970;10.082;2023-11-18T05:43:28;100155.19;;;1.49;66.74
64189;BME280;50493;50.970;10.082;2023-11-18T05:45:56;100161.16;;;1.48;66.64
64189;BME280;50493;50.970;10.082;2023-11-18T05:48:43;100159.56;;;1.52;66.41
64189;BME280;50493;50.970;10.082;2023-11-18T05:51:09;100156.25;;;1.56;66.42
64189;BME280;50493;50.970;10.082;2023-11-18T05:53:39;100170.59;;;1.48;66.77
64189;BME280;50493;50.970;10.082;2023-11-18T05:56:05;100163.72;;;1.47;66.17
64189;BME280;50493;50.970;10.082;2023-11-18T05:58:31;100160.94;;;1.41;66.92
64189;BME280;50493;50.970;10.082;2023-11-18T06:00:58;100152.47;;;1.45;66.86
64189;BME280;50493;50.970;10.082;2023-11-18T06:03:23;100157.38;;;1.35;66.24
64189;BME280;50493;50.970;10.082;2023-11-18T06:05:50;100153.88;;;1.33;66.56
64189;BME280;50493;50.970;10.082;2023-11-18T06:08:16;100169.00;;;1.21;67.18
64189;BME280;50493;50.970;10.082;2023-11-18T06:10:42;100165.56;;;1.22;67.39
64189;BME280;50493;50.970;10.082;2023-11-18T06:13:10;100156.19;;;1.24;66.91
64189;BME280;50493;50.970;10.082;2023-11-18T06:15:38;100163.00;;;1.22;66.74
64189;BME280;50493;50.970;10.082;2023-11-18T06:18:04;100169.00;;;1.21;66.96
64189;BME280;50493;50.970;10.082;2023-11-18T06:20:30;100167.41;;;1.26;66.75
64189;BME280;50493;50.970;10.082;2023-11-18T06:22:56;100171.56;;;1.21;67.00
64189;BME280;50493;50.970;10.082;2023-11-18T06:25:22;100178.41;;;1.20;66.79
64189;BME280;50493;50.970;10.082;2023-11-18T06:27:50;100176.72;;;1.21;66.88
64189;BME280;50493;50.970;10.082;2023-11-18T06:30:17;100186.09;;;1.19;66.24
64189;BME280;50493;50.970;10.082;2023-11-18T06:32:43;100185.94;;;1.13;66.38
64189;BME280;50493;50.970;10.082;2023-11-18T06:35:08;100182.41;;;1.11;67.11
64189;BME280;50493;50.970;10.082;2023-11-18T06:37:34;100179.03;;;1.12;67.06
64189;BME280;50493;50.970;10.082;2023-11-18T06:40:01;100184.81;;;1.04;66.56
64189;BME280;50493;50.970;10.082;2023-11-18T06:42:26;100187.00;;;0.92;66.97
64189;BME280;50493;50.970;10.082;2023-11-18T06:44:52;100180.50;;;1.03;66.52
64189;BME280;50493;50.970;10.082;2023-11-18T06:47:17;100174.69;;;1.11;66.01
64189;BME280;50493;50.970;10.082;2023-11-18T06:49:44;100169.63;;;1.14;66.55
64189;BME280;50493;50.970;10.082;2023-11-18T06:52:10;100171.34;;;1.13;66.16
64189;BME280;50493;50.970;10.082;2023-11-18T06:54:37;100165.22;;;1.10;65.69
64189;BME280;50493;50.970;10.082;2023-11-18T06:57:04;100168.53;;;1.05;65.82
64189;BME280;50493;50.970;10.082;2023-11-18T06:59:29;100179.28;;;0.92;66.13
64189;BME280;50493;50.970;10.082;2023-11-18T07:01:55;100176.06;;;0.98;66.04
64189;BME280;50493;50.970;10.082;2023-11-18T07:04:20;100181.19;;;0.98;66.33
64189;BME280;50493;50.970;10.082;2023-11-18T07:06:45;100179.59;;;1.03;64.48
64189;BME280;50493;50.970;10.082;2023-11-18T07:09:11;100177.19;;;1.08;65.00
64189;BME280;50493;50.970;10.082;2023-11-18T07:11:46;100183.47;;;1.17;65.14
64189;BME280;50493;50.970;10.082;2023-11-18T07:14:14;100194.44;;;1.10;65.34
64189;BME280;50493;50.970;10.082;2023-11-18T07:16:42;100196.84;;;1.34;64.51
64189;BME280;50493;50.970;10.082;2023-11-18T07:19:09;100204.34;;;1.57;63.45
64189;BME280;50493;50.970;10.082;2023-11-18T07:21:44;100203.53;;;1.90;62.58
64189;BME280;50493;50.970;10.082;2023-11-18T07:24:10;100204.19;;;2.15;61.22
64189;BME280;50493;50.970;10.082;2023-11-18T07:26:36;100203.59;;;2.25;60.66
64189;BME280;50493;50.970;10.082;2023-11-18T07:29:01;100214.97;;;2.33;60.33
64189;BME280;50493;50.970;10.082;2023-11-18T07:31:28;100208.19;;;2.38;60.01
64189;BME280;50493;50.970;10.082;2023-11-18T07:33:54;100208.72;;;2.60;59.61
64189;BME280;50493;50.970;10.082;2023-11-18T07:36:20;100210.94;;;2.81;58.61
64189;BME280;50493;50.970;10.082;2023-11-18T07:38:45;100202.63;;;2.93;57.95
64189;BME280;50493;50.970;10.082;2023-11-18T07:41:11;100194.22;;;3.43;55.88
64189;BME280;50493;50.970;10.082;2023-11-18T07:43:48;100206.38;;;3.47;55.99
64189;BME280;50493;50.970;10.082;2023-11-18T07:46:14;100207.03;;;3.38;55.37
64189;BME280;50493;50.970;10.082;2023-11-18T07:48:40;100203.44;;;3.30;56.03
64189;BME280;50493;50.970;10.082;2023-11-18T07:51:06;100215.28;;;3.20;56.98
64189;BME280;50493;50.970;10.082;2023-11-18T07:53:33;100219.78;;;3.72;55.14
64189;BME280;50493;50.970;10.082;2023-11-18T07:55:59;100224.19;;;3.76;54.18
64189;BME280;50493;50.970;10.082;2023-11-18T07:58:26;100205.31;;;3.37;54.03
64189;BME280;50493;50.970;10.082;2023-11-18T08:00:53;100202.75;;;2.99;56.89
64189;BME280;50493;50.970;10.082;2023-11-18T08:03:20;100205.81;;;2.83;57.67
64189;BME280;50493;50.970;10.082;2023-11-18T08:05:46;100210.19;;;2.49;58.75
64189;BME280;50493;50.970;10.082;2023-11-18T08:08:14;100212.25;;;2.64;58.83
64189;BME280;50493;50.970;10.082;2023-11-18T08:10:42;100216.31;;;2.90;57.66
64189;BME280;50493;50.970;10.082;2023-11-18T08:13:10;100221.59;;;2.95;57.72
64189;BME280;50493;50.970;10.082;2023-11-18T08:15:38;100230.41;;;3.03;56.97
64189;BME280;50493;50.970;10.082;2023-11-18T08:18:04;100234.94;;;3.14;57.43
64189;BME280;50493;50.970;10.082;2023-11-18T08:20:30;100228.47;;;3.33;56.68
64189;BME280;50493;50.970;10.082;2023-11-18T08:22:57;100234.59;;;3.36;56.75
64189;BME280;50493;50.970;10.082;2023-11-18T08:25:22;100236.47;;;3.45;56.46
64189;BME280;50493;50.970;10.082;2023-11-18T08:27:48;100238.06;;;3.38;56.12
64189;BME280;50493;50.970;10.082;2023-11-18T08:30:14;100237.00;;;3.29;56.27
64189;BME280;50493;50.970;10.082;2023-11-18T08:32:42;100230.72;;;3.16;57.02
64189;BME280;50493;50.970;10.082;2023-11-18T08:35:10;100231.53;;;3.15;57.05
64189;BME280;50493;50.970;10.082;2023-11-18T08:37:38;100229.75;;;3.12;57.04
64189;BME280;50493;50.970;10.082;2023-11-18T08:40:06;100227.63;;;3.32;55.04
64189;BME280;50493;50.970;10.082;2023-11-18T08:42:40;100215.00;;;3.06;56.74
64189;BME280;50493;50.970;10.082;2023-11-18T08:45:07;100212.78;;;2.87;58.18
64189;BME280;50493;50.970;10.082;2023-11-18T08:47:33;100210.72;;;3.09;57.48
64189;BME280;50493;50.970;10.082;2023-11-18T08:49:58;100197.16;;;3.17;56.94
64189;BME280;50493;50.970;10.082;2023-11-18T08:52:34;100189.22;;;3.10;56.81
64189;BME280;50493;50.970;10.082;2023-11-18T08:55:02;100186.78;;;3.16;57.07
64189;BME280;50493;50.970;10.082;2023-11-18T08:57:46;100181.03;;;3.29;57.44
64189;BME280;50493;50.970;10.082;2023-11-18T09:00:23;100187.81;;;3.24;56.18
64189;BME280;50493;50.970;10.082;2023-11-18T09:03:25;100186.44;;;3.42;54.65
64189;BME280;50493;50.970;10.082;2023-11-18T09:05:53;100188.72;;;3.28;55.98
64189;BME280;50493;50.970;10.082;2023-11-18T09:08:25;100193.03;;;3.27;56.19
64189;BME280;50493;50.970;10.082;2023-11-18T09:10:52;100197.50;;;3.36;56.94
64189;BME280;50493;50.970;10.082;2023-11-18T09:13:21;100202.06;;;3.48;56.07
64189;BME280;50493;50.970;10.082;2023-11-18T09:15:47;100196.25;;;3.58;56.21
64189;BME280;50493;50.970;10.082;2023-11-18T09:18:12;100189.88;;;3.85;55.52
64189;BME280;50493;50.970;10.082;2023-11-18T09:20:38;100198.59;;;3.46;56.27
64189;BME280;50493;50.970;10.082;2023-11-18T09:23:04;100194.25;;;3.89;55.59
64189;BME280;50493;50.970;10.082;2023-11-18T09:25:32;100192.50;;;4.38;54.31
64189;BME280;50493;50.970;10.082;2023-11-18T09:27:58;100192.03;;;4.61;54.50
64189;BME280;50493;50.970;10.082;2023-11-18T09:30:25;100183.59;;;4.74;54.74
64189;BME280;50493;50.970;10.082;2023-11-18T09:32:50;100180.38;;;5.55;51.60
64189;BME280;50493;50.970;10.082;2023-11-18T09:35:16;100192.97;;;6.03;51.78
64189;BME280;50493;50.970;10.082;2023-11-18T09:37:44;100190.16;;;5.80;50.54
64189;BME280;50493;50.970;10.082;2023-11-18T09:40:13;100188.88;;;5.45;51.31
64189;BME280;50493;50.970;10.082;2023-11-18T09:42:39;100194.00;;;5.40;51.78
64189;BME280;50493;50.970;10.082;2023-11-18T09:45:06;100188.53;;;5.91;52.07
64189;BME280;50493;50.970;10.082;2023-11-18T09:47:42;100183.91;;;6.53;49.98
64189;BME280;50493;50.970;10.082;2023-11-18T09:50:10;100179.63;;;5.67;50.07
64189;BME280;50493;50.970;10.082;2023-11-18T09:52:40;100172.13;;;5.93;53.14
64189;BME280;50493;50.970;10.082;2023-11-18T09:55:10;100163.91;;;6.44;49.37
64189;BME280;50493;50.970;10.082;2023-11-18T09:57:41;100169.47;;;5.89;49.67
64189;BME280;50493;50.970;10.082;2023-11-18T10:00:11;100171.69;;;6.46;50.40
64189;BME280;50493;50.970;10.082;2023-11-18T10:02:53;100167.41;;;6.48;49.87
64189;BME280;50493;50.970;10.082;2023-11-18T10:05:21;100174.09;;;6.21;51.10
64189;BME280;50493;50.970;10.082;2023-11-18T10:07:48;100178.63;;;6.40;50.51
64189;BME280;50493;50.970;10.082;2023-11-18T10:10:14;100186.25;;;6.25;50.25
64189;BME280;50493;50.970;10.082;2023-11-18T10:12:41;100176.66;;;4.73;53.56
64189;BME280;50493;50.970;10.082;2023-11-18T10:15:08;100171.00;;;5.68;52.60
64189;BME280;50493;50.970;10.082;2023-11-18T10:17:37;100161.28;;;6.36;50.93
64189;BME280;50493;50.970;10.082;2023-11-18T10:20:11;100169.16;;;6.49;50.90
64189;BME280;50493;50.970;10.082;2023-11-18T10:22:41;100156.34;;;6.78;48.63
64189;BME280;50493;50.970;10.082;2023-11-18T10:25:07;100147.72;;;5.76;52.71
64189;BME280;50493;50.970;10.082;2023-11-18T10:27:33;100157.91;;;6.53;52.20
64189;BME280;50493;50.970;10.082;2023-11-18T10:30:02;100151.41;;;7.26;49.71
64189;BME280;50493;50.970;10.082;2023-11-18T10:32:27;100148.72;;;7.06;51.62
64189;BME280;50493;50.970;10.082;2023-11-18T10:34:54;100135.03;;;7.44;48.93
64189;BME280;50493;50.970;10.082;2023-11-18T10:37:22;100132.44;;;7.58;47.55
64189;BME280;50493;50.970;10.082;2023-11-18T10:39:48;100128.09;;;7.52;48.77
64189;BME280;50493;50.970;10.082;2023-11-18T10:42:17;100123.78;;;7.56;48.22
64189;BME280;50493;50.970;10.082;2023-11-18T10:44:54;100130.97;;;6.41;50.56
64189;BME280;50493;50.970;10.082;2023-11-18T10:47:19;100130.41;;;5.75;53.15
64189;BME280;50493;50.970;10.082;2023-11-18T10:49:45;100129.22;;;6.34;52.08
64189;BME280;50493;50.970;10.082;2023-11-18T10:52:11;100121.66;;;6.68;51.10
64189;BME280;50493;50.970;10.082;2023-11-18T10:54:50;100113.81;;;5.59;52.33
64189;BME280;50493;50.970;10.082;2023-11-18T10:57:19;100105.09;;;6.52;53.06
64189;BME280;50493;50.970;10.082;2023-11-18T10:59:58;100102.78;;;7.06;51.30
64189;BME280;50493;50.970;10.082;2023-11-18T11:02:24;100092.09;;;6.48;51.83
64189;BME280;50493;50.970;10.082;2023-11-18T11:04:50;100102.66;;;6.85;50.92
64189;BME280;50493;50.970;10.082;2023-11-18T11:07:16;100098.53;;;7.32;50.21
64189;BME280;50493;50.970;10.082;2023-11-18T11:09:45;100098.56;;;7.35;50.04
64189;BME280;50493;50.970;10.082;2023-11-18T11:12:12;100091.59;;;7.26;50.23
64189;BME280;50493;50.970;10.082;2023-11-18T11:14:46;100106.09;;;6.77;52.09
64189;BME280;50493;50.970;10.082;2023-11-18T11:17:17;100095.59;;;6.54;52.59
64189;BME280;50493;50.970;10.082;2023-11-18T11:19:55;100097.53;;;6.97;52.46
64189;BME280;50493;50.970;10.082;2023-11-18T11:22:38;100075.19;;;7.39;49.90
64189;BME280;50493;50.970;10.082;2023-11-18T11:25:14;100066.41;;;7.09;49.97
64189;BME280;50493;50.970;10.082;2023-11-18T11:27:53;100056.00;;;7.09;51.72
64189;BME280;50493;50.970;10.082;2023-11-18T11:30:28;100059.59;;;7.49;50.09
64189;BME280;50493;50.970;10.082;2023-11-18T11:33:02;100064.81;;;7.67;49.72
64189;BME280;50493;50.970;10.082;2023-11-18T11:35:36;100059.59;;;7.58;50.69
64189;BME280;50493;50.970;10.082;2023-11-18T11:38:03;100052.56;;;7.14;52.38
64189;BME280;50493;50.970;10.082;2023-11-18T11:40:37;100067.13;;;6.82;53.72
64189;BME280;50493;50.970;10.082;2023-11-18T11:43:06;100061.31;;;7.47;51.66
64189;BME280;50493;50.970;10.082;2023-11-18T11:45:35;100043.06;;;7.34;52.28
64189;BME280;50493;50.970;10.082;2023-11-18T11:48:02;100044.00;;;7.75;50.39
64189;BME280;50493;50.970;10.082;2023-11-18T11:50:55;100039.66;;;7.77;48.45
64189;BME280;50493;50.970;10.082;2023-11-18T11:53:24;100033.59;;;7.61;50.63
64189;BME280;50493;50.970;10.082;2023-11-18T11:55:56;100017.13;;;7.85;49.66
64189;BME280;50493;50.970;10.082;2023-11-18T11:58:32;100011.03;;;7.75;50.18
64189;BME280;50493;50.970;10.082;2023-11-18T12:00:59;99995.44;;;7.48;50.19
64189;BME280;50493;50.970;10.082;2023-11-18T12:03:26;99990.22;;;7.63;51.04
64189;BME280;50493;50.970;10.082;2023-11-18T12:05:55;99975.41;;;7.26;51.75
64189;BME280;50493;50.970;10.082;2023-11-18T12:08:22;99965.94;;;7.58;51.77
64189;BME280;50493;50.970;10.082;2023-11-18T12:10:51;99961.56;;;7.14;52.74
64189;BME280;50493;50.970;10.082;2023-11-18T12:13:19;99967.63;;;7.28;52.72
64189;BME280;50493;50.970;10.082;2023-11-18T12:15:48;99978.03;;;7.22;53.92
64189;BME280;50493;50.970;10.082;2023-11-18T12:18:19;99986.75;;;7.55;53.75
64189;BME280;50493;50.970;10.082;2023-11-18T12:20:47;99991.94;;;7.67;52.82
64189;BME280;50493;50.970;10.082;2023-11-18T12:23:13;99985.91;;;7.64;52.15
64189;BME280;50493;50.970;10.082;2023-11-18T12:25:48;99976.34;;;7.83;51.27
64189;BME280;50493;50.970;10.082;2023-11-18T12:28:26;99960.72;;;7.76;51.42
64189;BME280;50493;50.970;10.082;2023-11-18T12:30:53;99964.16;;;7.14;54.52
64189;BME280;50493;50.970;10.082;2023-11-18T12:33:21;99968.03;;;6.02;57.11
64189;BME280;50493;50.970;10.082;2023-11-18T12:36:15;99964.91;;;5.34;60.02
64189;BME280;50493;50.970;10.082;2023-11-18T12:39:14;99973.28;;;6.13;57.49
64189;BME280;50493;50.970;10.082;2023-11-18T12:41:48;99971.44;;;4.96;60.06
64189;BME280;50493;50.970;10.082;2023-11-18T12:44:29;99962.63;;;5.68;58.84
64189;BME280;50493;50.970;10.082;2023-11-18T12:46:59;99965.41;;;5.97;58.20
64189;BME280;50493;50.970;10.082;2023-11-18T12:49:37;99960.19;;;5.94;58.68
64189;BME280;50493;50.970;10.082;2023-11-18T12:52:03;99964.06;;;5.36;59.69
64189;BME280;50493;50.970;10.082;2023-11-18T12:54:33;99956.13;;;5.21;61.22